createdAt,value
2023-03-26T00:02:13.092Z,42.31
2023-03-26T00:04:39.245Z,43.03
2023-03-26T00:07:05.368Z,42.69
2023-03-26T00:09:31.491Z,42.20
2023-03-26T00:11:57.616Z,41.75
2023-03-26T00:14:23.730Z,41.91
2023-03-26T00:16:49.883Z,41.84
2023-03-26T00:19:15.993Z,42.89
2023-03-26T00:21:42.082Z,44.76
2023-03-26T00:24:08.168Z,44.91
2023-03-26T00:26:34.260Z,45.05
2023-03-26T00:29:00.369Z,44.38
2023-03-26T00:31:26.456Z,44.80
2023-03-26T00:33:52.584Z,46.18
2023-03-26T00:36:18.706Z,46.04
2023-03-26T00:38:44.890Z,46.62
2023-03-26T00:41:11.003Z,45.76
2023-03-26T00:43:37.134Z,46.43
2023-03-26T00:46:03.261Z,47.76
2023-03-26T00:48:44.130Z,48.02
2023-03-26T00:51:11.500Z,47.96
2023-03-26T00:53:37.589Z,47.22
2023-03-26T00:56:03.669Z,47.40
2023-03-26T00:58:29.785Z,47.51
2023-03-26T01:00:55.862Z,48.33
2023-03-26T01:03:27.735Z,48.42
2023-03-26T01:05:54.555Z,47.71
2023-03-26T01:08:20.779Z,46.96
2023-03-26T01:10:46.865Z,47.14
2023-03-26T01:13:12.979Z,46.74
2023-03-26T01:15:39.122Z,47.25
2023-03-26T01:18:05.317Z,46.53
2023-03-26T01:20:31.451Z,45.99
2023-03-26T01:22:57.545Z,46.40
2023-03-26T01:25:23.626Z,48.05
2023-03-26T01:27:49.720Z,46.59
2023-03-26T01:30:15.815Z,45.89
2023-03-26T01:32:41.990Z,46.82
2023-03-26T01:35:08.132Z,46.12
2023-03-26T01:37:34.236Z,46.26
2023-03-26T01:40:00.319Z,47.31
2023-03-26T01:42:26.405Z,48.10
2023-03-26T01:44:52.521Z,47.40
2023-03-26T01:47:18.647Z,48.44
2023-03-26T01:49:44.771Z,46.92
2023-03-26T01:52:10.858Z,45.82
2023-03-26T01:54:36.955Z,44.97
2023-03-26T01:57:03.116Z,46.65
2023-03-26T01:59:29.239Z,49.88
2023-03-26T02:01:55.400Z,50.13
2023-03-26T02:04:21.565Z,49.35
2023-03-26T02:06:47.663Z,49.65
2023-03-26T02:09:13.763Z,49.96
2023-03-26T02:11:39.871Z,48.88
2023-03-26T02:14:06.034Z,48.11
2023-03-26T02:16:32.233Z,47.68
2023-03-26T02:18:58.452Z,47.71
2023-03-26T02:21:24.558Z,47.22
2023-03-26T02:23:50.675Z,47.83
2023-03-26T02:26:16.794Z,48.35
2023-03-26T02:28:42.888Z,49.18
2023-03-26T02:31:08.983Z,49.28
2023-03-26T02:33:35.080Z,48.63
2023-03-26T02:36:01.313Z,49.24
2023-03-26T02:38:27.450Z,49.66
2023-03-26T02:40:53.562Z,48.48
2023-03-26T02:43:19.661Z,47.84
2023-03-26T02:45:45.809Z,47.10
2023-03-26T02:48:11.913Z,46.26
2023-03-26T02:50:38.031Z,45.59
2023-03-26T02:53:04.127Z,45.85
2023-03-26T02:55:30.246Z,45.68
2023-03-26T02:57:56.330Z,44.87
2023-03-26T03:00:22.497Z,44.77
2023-03-26T03:02:48.786Z,44.14
2023-03-26T03:05:14.955Z,43.36
2023-03-26T03:07:41.081Z,43.46
2023-03-26T03:10:07.190Z,45.36
2023-03-26T03:12:33.282Z,45.03
2023-03-26T03:14:59.374Z,44.57
2023-03-26T03:17:25.537Z,43.35
2023-03-26T03:19:51.657Z,44.53
2023-03-26T03:22:17.728Z,44.44
2023-03-26T03:24:43.870Z,44.04
2023-03-26T03:27:09.975Z,44.34
2023-03-26T03:29:36.089Z,44.57
2023-03-26T03:32:02.209Z,43.21
2023-03-26T03:34:28.297Z,42.67
2023-03-26T03:36:54.407Z,41.90
2023-03-26T03:39:20.505Z,43.43
2023-03-26T03:41:46.631Z,42.01
2023-03-26T03:44:12.740Z,42.23
2023-03-26T03:46:38.845Z,42.28
2023-03-26T03:49:04.957Z,42.06
2023-03-26T03:51:31.049Z,42.83
2023-03-26T03:53:57.159Z,43.00
2023-03-26T03:56:23.287Z,42.03
2023-03-26T03:58:49.387Z,41.82
2023-03-26T04:01:15.481Z,42.71
2023-03-26T04:03:41.727Z,42.52
2023-03-26T04:06:07.988Z,42.15
2023-03-26T04:08:34.061Z,43.76
2023-03-26T04:11:00.151Z,43.06
2023-03-26T04:13:26.222Z,42.36
2023-03-26T04:15:52.467Z,43.28
2023-03-26T04:18:18.644Z,43.00
2023-03-26T04:20:44.749Z,42.73
2023-03-26T04:23:10.848Z,42.25
2023-03-26T04:25:36.941Z,42.41
2023-03-26T04:28:03.025Z,48.37
2023-03-26T04:30:29.110Z,51.43
2023-03-26T04:32:55.259Z,52.70
2023-03-26T04:35:21.449Z,49.48
2023-03-26T04:37:47.547Z,49.87
2023-03-26T04:40:13.659Z,49.89
2023-03-26T04:42:39.765Z,48.64
2023-03-26T04:45:05.860Z,47.06
2023-03-26T04:47:32.005Z,46.90
2023-03-26T04:49:58.160Z,46.83
2023-03-26T04:52:24.261Z,47.79
2023-03-26T04:54:50.378Z,48.47
2023-03-26T04:57:16.540Z,47.33
2023-03-26T04:59:42.672Z,46.63
2023-03-26T05:02:08.785Z,46.63
2023-03-26T05:04:34.956Z,47.88
2023-03-26T05:07:01.114Z,47.38
2023-03-26T05:09:27.233Z,46.94
2023-03-26T05:11:53.327Z,46.39
2023-03-26T05:14:19.444Z,45.86
2023-03-26T05:16:45.585Z,45.61
2023-03-26T05:19:11.767Z,45.61
2023-03-26T05:21:37.882Z,45.53
2023-03-26T05:24:03.963Z,46.13
2023-03-26T05:26:30.051Z,46.85
2023-03-26T05:28:56.144Z,46.87
2023-03-26T05:31:22.220Z,46.53
2023-03-26T05:33:48.313Z,47.73
2023-03-26T05:36:14.436Z,47.79
2023-03-26T05:38:40.671Z,47.90
2023-03-26T05:41:06.773Z,48.65
2023-03-26T05:43:32.849Z,48.33
2023-03-26T05:45:59.016Z,49.28
2023-03-26T05:48:25.106Z,48.91
2023-03-26T05:50:51.194Z,50.80
2023-03-26T05:53:17.303Z,51.48
2023-03-26T05:55:43.392Z,50.82
2023-03-26T05:58:09.487Z,52.24
2023-03-26T06:00:35.572Z,53.45
2023-03-26T06:03:01.827Z,52.55
2023-03-26T06:05:28.011Z,52.38
2023-03-26T06:07:54.096Z,52.37
2023-03-26T06:10:20.216Z,54.17
2023-03-26T06:12:46.336Z,54.36
2023-03-26T06:15:12.439Z,55.78
2023-03-26T06:17:38.627Z,56.92
2023-03-26T06:20:04.737Z,53.77
2023-03-26T06:22:30.819Z,52.97
2023-03-26T06:24:56.894Z,53.49
2023-03-26T06:27:22.984Z,55.87
2023-03-26T06:29:49.101Z,56.99
2023-03-26T06:32:19.978Z,54.14
2023-03-26T06:34:46.389Z,55.39
2023-03-26T06:37:12.511Z,56.46
2023-03-26T06:39:38.619Z,56.43
2023-03-26T06:42:04.718Z,55.20
2023-03-26T06:44:30.811Z,56.61
2023-03-26T06:46:56.932Z,54.86
2023-03-26T06:49:23.034Z,55.03
2023-03-26T06:51:49.113Z,56.11
2023-03-26T06:54:15.214Z,57.26
2023-03-26T06:56:41.338Z,58.99
2023-03-26T06:59:07.447Z,57.91
2023-03-26T07:01:33.554Z,57.46
2023-03-26T07:03:59.905Z,57.56
2023-03-26T07:06:26.353Z,56.74
2023-03-26T07:08:52.465Z,58.53
2023-03-26T07:11:18.565Z,58.94
2023-03-26T07:13:44.648Z,59.53
2023-03-26T07:16:10.742Z,60.86
2023-03-26T07:18:36.832Z,61.14
2023-03-26T07:21:02.898Z,62.44
2023-03-26T07:23:28.979Z,63.84
2023-03-26T07:25:55.083Z,64.16
2023-03-26T07:28:21.177Z,63.24
2023-03-26T07:30:47.266Z,62.32
2023-03-26T07:33:13.370Z,61.23
2023-03-26T07:35:39.502Z,61.67
2023-03-26T07:38:05.603Z,61.52
2023-03-26T07:40:31.678Z,61.92
2023-03-26T07:42:57.762Z,63.05
2023-03-26T07:45:23.874Z,62.79
2023-03-26T07:47:50.010Z,62.96
2023-03-26T07:50:17.787Z,63.72
2023-03-26T07:52:44.449Z,63.06
2023-03-26T07:55:10.545Z,63.17
2023-03-26T07:57:36.655Z,63.91
2023-03-26T08:00:02.808Z,62.83
2023-03-26T08:02:28.970Z,63.07
2023-03-26T08:04:55.311Z,63.39
2023-03-26T08:07:21.529Z,62.79
2023-03-26T08:09:47.632Z,62.58
2023-03-26T08:12:13.729Z,61.04
2023-03-26T08:14:39.823Z,61.01
2023-03-26T08:17:05.925Z,60.53
2023-03-26T08:19:31.996Z,61.74
2023-03-26T08:21:58.093Z,61.48
2023-03-26T08:24:24.212Z,61.11
2023-03-26T08:26:50.330Z,64.88
2023-03-26T08:29:16.433Z,63.91
2023-03-26T08:31:42.573Z,64.71
2023-03-26T08:34:08.677Z,63.07
2023-03-26T08:36:34.798Z,62.83
2023-03-26T08:39:00.936Z,62.87
2023-03-26T08:41:27.039Z,61.15
2023-03-26T08:43:55.103Z,61.73
2023-03-26T08:46:21.666Z,60.37
2023-03-26T08:48:47.847Z,61.87
2023-03-26T08:51:13.952Z,62.91
2023-03-26T08:53:40.052Z,63.11
2023-03-26T08:56:06.164Z,63.10
2023-03-26T08:58:32.276Z,62.84
2023-03-26T09:00:58.349Z,61.68
2023-03-26T09:03:24.477Z,61.50
2023-03-26T09:05:50.601Z,61.93
2023-03-26T09:08:16.694Z,64.68
2023-03-26T09:10:42.809Z,63.83
2023-03-26T09:13:08.922Z,65.55
2023-03-26T09:15:35.071Z,63.52
2023-03-26T09:18:01.181Z,62.54
2023-03-26T09:20:27.314Z,63.38
2023-03-26T09:22:53.407Z,63.55
2023-03-26T09:25:19.497Z,65.14
2023-03-26T09:27:45.607Z,65.76
2023-03-26T09:30:11.719Z,65.10
2023-03-26T09:32:37.887Z,66.28
2023-03-26T09:35:04.027Z,66.93
2023-03-26T09:37:30.121Z,66.99
2023-03-26T09:39:56.252Z,62.19
2023-03-26T09:42:22.324Z,63.19
2023-03-26T09:44:48.427Z,63.13
2023-03-26T09:47:14.511Z,65.09
2023-03-26T09:49:40.610Z,65.13
2023-03-26T09:52:06.729Z,65.94
2023-03-26T09:54:32.826Z,63.61
2023-03-26T09:56:58.972Z,62.44
2023-03-26T09:59:25.130Z,63.58
2023-03-26T10:01:51.213Z,63.93
2023-03-26T10:04:17.310Z,64.13
2023-03-26T10:06:43.440Z,63.26
2023-03-26T10:09:09.543Z,72.99
2023-03-26T10:11:35.672Z,71.78
2023-03-26T10:14:01.756Z,71.61
2023-03-26T10:16:27.892Z,70.36
2023-03-26T10:18:54.042Z,69.60
2023-03-26T10:21:20.941Z,68.81
2023-03-26T10:23:48.156Z,69.13
2023-03-26T10:26:14.263Z,70.78
2023-03-26T10:28:40.371Z,71.36
2023-03-26T10:31:06.578Z,69.26
2023-03-26T10:33:32.767Z,69.17
2023-03-26T10:35:58.904Z,67.24
2023-03-26T10:38:25.034Z,67.36
2023-03-26T10:40:51.152Z,65.82
2023-03-26T10:43:17.232Z,64.92
2023-03-26T10:45:43.322Z,65.17
2023-03-26T10:48:09.418Z,64.19
2023-03-26T10:50:35.513Z,65.97
2023-03-26T10:53:01.626Z,68.40
2023-03-26T10:55:27.727Z,74.15
2023-03-26T10:57:53.857Z,77.75
2023-03-26T11:00:19.935Z,76.81
2023-03-26T11:02:46.128Z,74.80
2023-03-26T11:05:12.314Z,72.58
2023-03-26T11:07:38.441Z,71.27
2023-03-26T11:10:04.576Z,69.16
2023-03-26T11:12:30.694Z,69.05
2023-03-26T11:14:56.790Z,69.91
2023-03-26T11:17:39.230Z,68.28
2023-03-26T11:20:06.036Z,66.07
2023-03-26T11:22:32.145Z,68.14
2023-03-26T11:24:58.246Z,67.87
2023-03-26T11:27:25.870Z,67.27
2023-03-26T11:29:52.589Z,69.95
2023-03-26T11:32:18.836Z,70.60
2023-03-26T11:34:45.387Z,68.68
2023-03-26T11:37:11.506Z,65.72
2023-03-26T11:39:37.596Z,63.89
2023-03-26T11:42:03.679Z,65.00
2023-03-26T11:44:29.813Z,63.13
2023-03-26T11:46:55.989Z,61.72
2023-03-26T11:49:22.122Z,59.98
2023-03-26T11:51:48.232Z,58.62
2023-03-26T11:54:14.339Z,61.89
2023-03-26T11:56:40.473Z,60.55
2023-03-26T11:59:26.536Z,62.58
2023-03-26T12:01:52.689Z,65.97
2023-03-26T12:04:18.833Z,68.69
2023-03-26T12:06:44.940Z,67.42
2023-03-26T12:09:11.021Z,64.29
2023-03-26T12:11:37.095Z,62.93
2023-03-26T12:14:03.176Z,61.85
2023-03-26T12:16:29.287Z,63.94
2023-03-26T12:18:55.483Z,62.48
2023-03-26T12:21:21.582Z,63.41
2023-03-26T12:23:47.684Z,60.19
2023-03-26T12:26:13.785Z,62.13
2023-03-26T12:28:40.988Z,61.55
2023-03-26T12:31:08.138Z,61.64
2023-03-26T12:33:34.438Z,59.44
2023-03-26T12:36:00.888Z,65.02
2023-03-26T12:38:27.103Z,60.09
2023-03-26T12:40:53.361Z,56.83
2023-03-26T12:44:52.932Z,59.87
2023-03-26T12:47:54.230Z,61.35
2023-03-26T12:48:51.797Z,58.43
2023-03-26T12:51:17.957Z,54.75
2023-03-26T12:53:44.052Z,57.26
2023-03-26T12:56:10.162Z,57.46
2023-03-26T12:58:36.299Z,61.29
2023-03-26T13:01:02.406Z,59.68
2023-03-26T13:03:28.518Z,67.49
2023-03-26T13:05:54.630Z,59.92
2023-03-26T13:08:20.737Z,60.92
2023-03-26T13:10:46.827Z,58.71
2023-03-26T13:13:12.949Z,62.75
2023-03-26T13:15:39.050Z,61.40
2023-03-26T13:18:05.198Z,58.24
2023-03-26T13:20:31.318Z,55.75
2023-03-26T13:22:57.417Z,53.98
2023-03-26T13:25:23.509Z,49.29
2023-03-26T13:27:49.609Z,51.07
2023-03-26T13:30:15.738Z,48.58
2023-03-26T13:32:41.883Z,53.16
2023-03-26T13:35:08.028Z,51.44
2023-03-26T13:37:34.164Z,50.67
2023-03-26T13:40:00.359Z,52.40
2023-03-26T13:42:26.514Z,53.08
2023-03-26T13:44:52.608Z,52.91
2023-03-26T13:47:30.548Z,52.63
2023-03-26T13:49:56.662Z,54.70
2023-03-26T13:52:22.746Z,55.05
2023-03-26T13:54:48.844Z,52.91
2023-03-26T13:57:15.014Z,54.46
2023-03-26T13:59:41.183Z,57.53
2023-03-26T14:02:07.300Z,55.63
2023-03-26T14:04:33.427Z,52.44
2023-03-26T14:06:59.538Z,57.83
2023-03-26T14:09:25.649Z,56.96
2023-03-26T14:11:51.760Z,58.86
2023-03-26T14:14:17.827Z,60.04
2023-03-26T14:16:43.905Z,59.30
2023-03-26T14:19:09.993Z,62.71
2023-03-26T14:21:36.090Z,61.35
2023-03-26T14:24:02.205Z,60.97
2023-03-26T14:26:28.301Z,61.64
2023-03-26T14:28:54.414Z,64.65
2023-03-26T14:31:20.531Z,65.10
2023-03-26T14:33:46.666Z,64.24
2023-03-26T14:36:12.755Z,63.73
2023-03-26T14:38:39.900Z,63.55
2023-03-26T14:41:06.001Z,65.77
2023-03-26T14:43:32.122Z,66.40
2023-03-26T14:45:58.228Z,69.83
2023-03-26T14:48:24.326Z,69.01
2023-03-26T14:50:50.447Z,70.68
2023-03-26T14:53:16.685Z,69.39
2023-03-26T14:55:42.786Z,69.01
2023-03-26T14:58:08.878Z,68.63
2023-03-26T15:00:34.996Z,68.76
2023-03-26T15:03:01.156Z,68.07
2023-03-26T15:05:27.280Z,66.37
2023-03-26T15:07:53.388Z,67.29
2023-03-26T15:10:19.534Z,64.52
2023-03-26T15:12:45.630Z,65.71
2023-03-26T15:15:11.758Z,69.30
2023-03-26T15:17:37.866Z,73.60
2023-03-26T15:20:03.995Z,69.13
2023-03-26T15:22:30.120Z,70.30
2023-03-26T15:24:56.229Z,69.14
2023-03-26T15:27:22.348Z,70.74
2023-03-26T15:29:48.448Z,68.89
2023-03-26T15:32:14.545Z,69.31
2023-03-26T15:34:40.676Z,66.30
2023-03-26T15:37:06.800Z,64.78
2023-03-26T15:39:32.889Z,63.94
2023-03-26T15:41:58.978Z,63.51
2023-03-26T15:44:25.651Z,63.26
2023-03-26T15:46:51.794Z,66.75
2023-03-26T15:49:17.894Z,66.95
2023-03-26T15:51:46.974Z,66.72
2023-03-26T15:54:13.669Z,65.80
2023-03-26T15:56:39.847Z,67.06
2023-03-26T15:59:05.967Z,64.81
2023-03-26T16:01:32.670Z,64.93
2023-03-26T16:03:58.874Z,63.39
2023-03-26T16:06:24.964Z,72.16
2023-03-26T16:08:51.089Z,72.67
2023-03-26T16:11:17.212Z,71.38
2023-03-26T16:13:43.298Z,68.72
2023-03-26T16:16:09.395Z,67.27
2023-03-26T16:18:35.601Z,62.83
2023-03-26T16:21:01.725Z,59.95
2023-03-26T16:23:27.820Z,60.88
2023-03-26T16:25:53.889Z,61.91
2023-03-26T16:28:19.984Z,63.34
2023-03-26T16:30:46.179Z,53.83
2023-03-26T16:33:12.332Z,56.67
2023-03-26T16:35:38.432Z,64.94
2023-03-26T16:38:04.570Z,63.83
2023-03-26T16:40:30.669Z,62.02
2023-03-26T16:42:56.766Z,61.20
2023-03-26T16:45:22.851Z,62.20
2023-03-26T16:47:48.949Z,60.42
2023-03-26T16:50:15.049Z,60.55
2023-03-26T16:52:41.133Z,65.80
2023-03-26T16:55:07.252Z,68.12
2023-03-26T16:57:33.346Z,69.12
2023-03-26T17:00:05.833Z,65.97
2023-03-26T17:02:33.181Z,63.75
2023-03-26T17:04:59.300Z,62.97
2023-03-26T17:07:25.379Z,59.78
2023-03-26T17:09:51.470Z,60.78
2023-03-26T17:12:17.562Z,61.71
2023-03-26T17:14:43.651Z,66.70
2023-03-26T17:17:09.763Z,68.14
2023-03-26T17:19:35.873Z,68.15
2023-03-26T17:22:01.972Z,69.61
2023-03-26T17:24:28.055Z,70.13
2023-03-26T17:26:54.160Z,69.67
2023-03-26T17:29:20.283Z,68.21
2023-03-26T17:31:46.430Z,64.86
2023-03-26T17:34:12.522Z,62.76
2023-03-26T17:36:38.612Z,60.94
